createdAt,value
2022-11-29T00:01:32.097Z,10.90
2022-11-29T00:04:00.168Z,10.10
2022-11-29T00:06:31.576Z,12.00
2022-11-29T00:09:01.928Z,10.10
2022-11-29T00:11:32.738Z,9.40
2022-11-29T00:14:00.350Z,11.50
2022-11-29T00:16:27.968Z,10.70
2022-11-29T00:18:55.693Z,9.10
2022-11-29T00:21:23.283Z,9.90
2022-11-29T00:23:51.180Z,7.50
2022-11-29T00:26:19.380Z,10.40
2022-11-29T00:28:47.131Z,9.30
2022-11-29T00:31:16.084Z,10.50
2022-11-29T00:33:44.015Z,9.70
2022-11-29T00:36:12.221Z,9.90
2022-11-29T00:38:40.476Z,11.60
2022-11-29T00:41:08.635Z,10.30
2022-11-29T00:43:36.348Z,9.40
2022-11-29T00:46:05.173Z,10.40
2022-11-29T00:48:33.306Z,9.80
2022-11-29T00:51:01.725Z,9.20
2022-11-29T00:53:29.365Z,9.60
2022-11-29T00:55:57.423Z,9.60
2022-11-29T00:58:25.015Z,10.20
2022-11-29T01:00:53.780Z,9.80
2022-11-29T01:03:21.900Z,9.20
2022-11-29T01:05:49.549Z,7.80
2022-11-29T01:08:18.012Z,9.60
2022-11-29T01:10:45.663Z,9.00
2022-11-29T01:13:13.287Z,9.90
2022-11-29T01:15:40.891Z,10.20
2022-11-29T01:18:08.545Z,8.00
2022-11-29T01:20:36.221Z,8.20
2022-11-29T01:23:03.831Z,8.70
2022-11-29T01:25:31.435Z,9.20
2022-11-29T01:27:59.228Z,8.00
2022-11-29T01:30:27.011Z,8.50
2022-11-29T01:32:54.614Z,7.30
2022-11-29T01:35:22.228Z,7.00
2022-11-29T01:37:49.827Z,10.00
2022-11-29T01:40:17.569Z,9.40
2022-11-29T01:42:45.172Z,7.90
2022-11-29T01:45:25.875Z,8.90
2022-11-29T01:47:56.730Z,8.50
2022-11-29T01:50:24.815Z,7.60
2022-11-29T01:52:52.665Z,8.60
2022-11-29T01:55:20.715Z,8.00
2022-11-29T01:57:48.980Z,8.40
2022-11-29T02:00:19.804Z,6.40
2022-11-29T02:02:53.813Z,8.00
2022-11-29T02:05:22.025Z,7.20
2022-11-29T02:07:52.827Z,7.00
2022-11-29T02:10:26.319Z,7.70
2022-11-29T02:13:14.107Z,7.50
2022-11-29T02:15:58.697Z,6.10
2022-11-29T02:19:08.383Z,7.40
2022-11-29T02:21:47.064Z,6.40
2022-11-29T02:24:52.304Z,7.30
2022-11-29T02:27:46.980Z,6.20
2022-11-29T02:30:26.605Z,6.40
2022-11-29T02:33:16.976Z,7.50
2022-11-29T02:36:11.788Z,6.80
2022-11-29T02:39:07.360Z,6.30
2022-11-29T02:42:12.540Z,7.30
2022-11-29T02:44:49.196Z,6.10
2022-11-29T02:47:47.930Z,7.80
2022-11-29T02:50:40.454Z,8.20
2022-11-29T02:53:22.969Z,7.10
2022-11-29T02:56:17.098Z,8.40
2022-11-29T02:58:56.049Z,8.60
2022-11-29T03:01:37.738Z,7.70
2022-11-29T03:04:21.214Z,8.30
2022-11-29T03:06:57.420Z,6.60
2022-11-29T03:09:38.445Z,8.00
2022-11-29T03:12:14.950Z,7.60
2022-11-29T03:15:13.595Z,7.70
2022-11-29T03:18:02.511Z,6.70
2022-11-29T03:20:41.053Z,7.40
2022-11-29T03:23:27.054Z,7.00
2022-11-29T03:26:02.602Z,6.40
2022-11-29T03:28:41.444Z,7.80
2022-11-29T03:31:15.073Z,7.20
2022-11-29T03:33:55.120Z,7.80
2022-11-29T03:36:54.742Z,5.50
2022-11-29T03:39:50.927Z,6.30
2022-11-29T03:42:36.758Z,6.30
2022-11-29T03:45:07.605Z,7.20
2022-11-29T03:48:13.162Z,6.00
2022-11-29T03:51:11.376Z,6.50
2022-11-29T03:53:50.603Z,7.10
2022-11-29T03:56:32.473Z,6.90
2022-11-29T03:59:18.571Z,6.10
2022-11-29T04:02:21.216Z,7.30
2022-11-29T04:05:04.299Z,6.20
2022-11-29T04:08:01.145Z,7.60
2022-11-29T04:10:43.945Z,6.60
2022-11-29T04:13:17.845Z,6.40
2022-11-29T04:16:15.938Z,7.20
2022-11-29T04:19:12.670Z,6.20
2022-11-29T04:22:24.749Z,6.10
2022-11-29T04:27:44.503Z,5.20
2022-11-29T04:30:25.988Z,6.40
2022-11-29T04:33:08.800Z,6.40
2022-11-29T04:35:51.181Z,5.50
2022-11-29T04:38:31.332Z,5.30
2022-11-29T04:41:13.936Z,6.70
2022-11-29T04:43:50.424Z,6.70
2022-11-29T04:46:33.061Z,6.10
2022-11-29T04:49:15.306Z,6.20
2022-11-29T04:51:51.914Z,5.80
2022-11-29T04:54:43.240Z,7.30
2022-11-29T04:57:20.053Z,6.00
2022-11-29T04:59:56.032Z,5.60
2022-11-29T05:02:41.021Z,7.30
2022-11-29T05:05:29.235Z,6.80
2022-11-29T05:08:18.032Z,7.30
2022-11-29T05:11:12.063Z,5.90
2022-11-29T05:14:08.550Z,6.30
2022-11-29T05:17:13.224Z,6.90
2022-11-29T05:19:48.449Z,6.80
2022-11-29T05:22:34.376Z,6.20
2022-11-29T05:25:35.308Z,7.00
2022-11-29T05:28:09.807Z,9.50
2022-11-29T05:30:43.933Z,9.70
2022-11-29T05:33:37.717Z,7.60
2022-11-29T05:36:20.299Z,8.50
2022-11-29T05:39:01.664Z,7.90
2022-11-29T05:41:38.302Z,6.70
2022-11-29T05:44:28.890Z,6.40
2022-11-29T05:47:01.078Z,6.50
2022-11-29T05:50:13.877Z,7.70
2022-11-29T05:52:56.228Z,7.20
2022-11-29T05:55:56.990Z,7.00
2022-11-29T05:58:30.121Z,7.80
2022-11-29T06:01:17.028Z,5.50
2022-11-29T06:03:57.207Z,8.30
2022-11-29T06:06:30.844Z,6.10
2022-11-29T06:09:17.188Z,8.10
2022-11-29T06:11:50.165Z,7.90
2022-11-29T06:14:55.352Z,7.60
2022-11-29T06:17:39.033Z,7.40
2022-11-29T06:20:25.716Z,8.60
2022-11-29T06:23:01.963Z,7.40
2022-11-29T06:25:53.856Z,6.80
2022-11-29T06:28:46.090Z,7.40
2022-11-29T06:31:36.933Z,7.30
2022-11-29T06:34:12.237Z,7.60
2022-11-29T06:36:46.821Z,7.50
2022-11-29T06:39:14.852Z,8.90
2022-11-29T06:41:42.727Z,8.90
2022-11-29T06:44:11.061Z,8.40
2022-11-29T06:46:49.174Z,7.90
2022-11-29T06:49:27.186Z,9.30
2022-11-29T06:52:22.149Z,9.70
2022-11-29T06:55:10.991Z,7.30
2022-11-29T06:57:53.837Z,6.50
2022-11-29T07:00:23.363Z,7.70
2022-11-29T07:03:15.790Z,8.30
2022-11-29T07:05:43.848Z,8.80
2022-11-29T07:08:11.383Z,8.30
2022-11-29T07:10:41.336Z,6.70
2022-11-29T07:13:12.411Z,8.10
2022-11-29T07:16:01.722Z,8.30
2022-11-29T07:18:52.370Z,6.80
2022-11-29T07:21:19.907Z,8.00
2022-11-29T07:24:31.720Z,8.50
2022-11-29T07:27:19.648Z,8.20
2022-11-29T07:29:59.016Z,9.30
2022-11-29T07:33:08.171Z,9.30
2022-11-29T07:35:47.765Z,10.80
2022-11-29T07:38:18.029Z,8.00
2022-11-29T07:41:06.346Z,7.30
2022-11-29T07:43:56.185Z,7.90
2022-11-29T07:46:26.289Z,8.10
2022-11-29T07:48:54.019Z,7.10
2022-11-29T07:51:21.799Z,6.90
2022-11-29T07:53:49.511Z,8.60
2022-11-29T07:56:17.089Z,8.70
2022-11-29T07:58:44.759Z,10.20
2022-11-29T08:01:12.606Z,11.10
2022-11-29T08:03:41.930Z,8.20
2022-11-29T08:06:09.592Z,8.40
2022-11-29T08:08:42.350Z,7.60
2022-11-29T08:11:12.745Z,9.20
2022-11-29T08:13:40.390Z,7.80
2022-11-29T08:16:08.270Z,9.00
2022-11-29T08:18:36.726Z,8.20
2022-11-29T08:21:07.457Z,10.30
2022-11-29T08:23:35.040Z,9.00
2022-11-29T08:26:03.662Z,7.80
2022-11-29T08:28:31.317Z,9.00
2022-11-29T08:31:04.124Z,10.00
2022-11-29T08:33:31.884Z,8.50
2022-11-29T08:36:19.761Z,7.90
2022-11-29T08:38:47.864Z,8.80
2022-11-29T08:41:17.051Z,8.90
2022-11-29T08:43:44.957Z,8.70
2022-11-29T08:46:18.219Z,7.80
2022-11-29T08:48:47.739Z,8.80
2022-11-29T08:51:15.617Z,8.50
2022-11-29T08:53:43.313Z,8.10
2022-11-29T08:56:59.649Z,7.80
2022-11-29T08:59:01.467Z,9.90
2022-11-29T09:01:29.203Z,9.10
2022-11-29T09:03:57.024Z,10.10
2022-11-29T09:06:26.479Z,9.50
2022-11-29T09:08:55.783Z,9.00
2022-11-29T09:11:25.469Z,8.70
2022-11-29T09:13:56.179Z,9.50
2022-11-29T09:16:27.276Z,8.50
2022-11-29T09:18:55.411Z,11.10
2022-11-29T09:21:25.278Z,11.10
2022-11-29T09:23:54.368Z,9.90
2022-11-29T09:26:21.954Z,8.90
2022-11-29T09:28:49.559Z,8.20
2022-11-29T09:31:17.650Z,9.90
2022-11-29T09:33:45.704Z,9.70
2022-11-29T09:36:13.641Z,13.90
2022-11-29T09:38:41.232Z,11.70
2022-11-29T09:41:19.638Z,13.20
2022-11-29T09:43:54.704Z,12.90
2022-11-29T09:46:22.360Z,12.90
2022-11-29T09:49:28.669Z,10.20
2022-11-29T09:52:10.624Z,9.50
2022-11-29T09:55:02.196Z,9.50
2022-11-29T09:57:31.352Z,8.20
2022-11-29T10:00:04.222Z,10.70
2022-11-29T10:02:39.074Z,9.70
2022-11-29T10:05:15.277Z,11.00
2022-11-29T10:07:55.980Z,10.30
2022-11-29T10:10:33.075Z,12.40
2022-11-29T10:13:11.813Z,10.50
2022-11-29T10:15:43.629Z,10.60
2022-11-29T10:18:23.324Z,11.00
2022-11-29T10:20:55.123Z,10.40
2022-11-29T10:24:01.384Z,9.70
2022-11-29T10:26:33.674Z,11.20
2022-11-29T10:29:02.972Z,8.80
2022-11-29T10:31:39.448Z,9.20
2022-11-29T10:34:22.317Z,9.40
2022-11-29T10:36:52.240Z,9.50
2022-11-29T10:39:26.778Z,9.00
2022-11-29T10:42:01.425Z,7.70
2022-11-29T10:44:31.962Z,10.00
2022-11-29T10:47:09.301Z,7.60
2022-11-29T10:49:38.593Z,6.80
2022-11-29T10:52:24.922Z,9.50
2022-11-29T10:54:58.511Z,9.60
2022-11-29T10:57:26.320Z,9.00
2022-11-29T11:00:09.443Z,11.00
2022-11-29T11:02:38.041Z,10.20
2022-11-29T11:05:13.832Z,10.00
2022-11-29T11:07:41.526Z,9.80
2022-11-29T11:10:26.014Z,11.00
2022-11-29T11:13:06.146Z,9.50
2022-11-29T11:15:34.294Z,10.80
2022-11-29T11:18:06.885Z,11.60
2022-11-29T11:20:41.441Z,10.30
2022-11-29T11:23:25.504Z,11.60
2022-11-29T11:26:02.156Z,10.70
2022-11-29T11:28:37.488Z,12.00
2022-11-29T11:31:07.639Z,9.50
2022-11-29T11:33:45.986Z,11.70
2022-11-29T11:36:19.374Z,9.50
2022-11-29T11:38:57.347Z,11.60
2022-11-29T11:41:28.937Z,11.50
2022-11-29T11:46:48.113Z,10.80
2022-11-29T11:49:49.653Z,12.40
2022-11-29T11:52:27.499Z,18.00
2022-11-29T11:54:59.827Z,10.30
2022-11-29T11:57:28.546Z,13.30
2022-11-29T12:00:03.437Z,12.10
2022-11-29T12:02:39.638Z,11.80
2022-11-29T12:05:16.042Z,13.80
2022-11-29T12:10:39.655Z,17.40
2022-11-29T12:13:18.347Z,15.20
2022-11-29T12:15:49.271Z,13.80
2022-11-29T12:18:38.080Z,13.60
2022-11-29T12:21:05.870Z,13.30
2022-11-29T12:24:02.325Z,12.90
2022-11-29T12:26:56.843Z,13.00
2022-11-29T12:29:29.168Z,12.30
2022-11-29T12:31:59.455Z,13.40
2022-11-29T12:34:42.371Z,13.00
2022-11-29T12:37:21.251Z,13.80
2022-11-29T12:39:48.818Z,12.40
2022-11-29T12:42:27.729Z,12.10
2022-11-29T12:45:19.907Z,15.30
2022-11-29T12:48:24.989Z,11.70
2022-11-29T12:51:05.439Z,12.50
2022-11-29T12:54:17.687Z,13.10
2022-11-29T12:59:31.240Z,13.60
2022-11-29T13:02:25.097Z,15.40
2022-11-29T13:05:20.626Z,12.70
2022-11-29T13:08:00.511Z,13.70
2022-11-29T13:10:55.359Z,14.00
2022-11-29T13:13:48.812Z,12.20
2022-11-29T13:16:22.067Z,14.10
2022-11-29T13:19:17.303Z,11.70
2022-11-29T13:21:55.502Z,14.70
2022-11-29T13:24:52.892Z,15.50
2022-11-29T13:27:42.978Z,18.00
2022-11-29T13:30:15.053Z,16.20
2022-11-29T13:32:57.601Z,14.60
2022-11-29T13:35:53.727Z,13.90
2022-11-29T13:38:36.948Z,14.60
2022-11-29T13:41:27.132Z,13.40
2022-11-29T13:43:57.879Z,12.40
2022-11-29T13:46:44.271Z,12.70
2022-11-29T13:49:42.666Z,12.60
2022-11-29T13:52:32.438Z,12.60
2022-11-29T13:55:12.115Z,12.00
2022-11-29T13:58:16.280Z,12.10
2022-11-29T14:00:44.437Z,12.20
2022-11-29T14:03:24.239Z,13.50
2022-11-29T14:05:53.309Z,11.90
2022-11-29T14:08:42.159Z,12.90
2022-11-29T14:11:19.791Z,12.70
2022-11-29T14:14:06.905Z,12.40
2022-11-29T14:16:43.529Z,13.40
2022-11-29T14:19:19.944Z,14.30
2022-11-29T14:21:56.662Z,12.40
2022-11-29T14:24:33.144Z,14.10
2022-11-29T14:27:06.729Z,14.40
2022-11-29T14:29:49.353Z,13.70
2022-11-29T14:32:23.356Z,13.00
2022-11-29T14:35:14.967Z,14.60
2022-11-29T14:38:01.197Z,14.50
2022-11-29T14:40:36.969Z,15.70
2022-11-29T14:43:16.563Z,12.60
2022-11-29T14:45:44.216Z,14.70
2022-11-29T14:48:28.081Z,13.30
2022-11-29T14:51:09.446Z,14.40
2022-11-29T14:53:38.496Z,16.30
2022-11-29T14:56:30.974Z,16.20
2022-11-29T14:59:36.098Z,14.70
2022-11-29T15:02:25.592Z,14.30
2022-11-29T15:04:56.992Z,10.50
2022-11-29T15:07:29.907Z,15.10
2022-11-29T15:10:04.329Z,13.50
2022-11-29T15:12:37.649Z,13.80
2022-11-29T15:15:32.746Z,12.10
2022-11-29T15:18:15.317Z,15.10
2022-11-29T15:21:01.242Z,13.70
2022-11-29T15:23:28.905Z,14.40
2022-11-29T15:26:00.650Z,15.90
2022-11-29T15:28:29.566Z,15.60
2022-11-29T15:31:10.170Z,13.90
2022-11-29T15:33:41.545Z,17.00
2022-11-29T15:36:16.173Z,15.90
2022-11-29T15:38:47.177Z,16.40
2022-11-29T15:41:40.993Z,15.40
2022-11-29T15:44:22.592Z,14.60
2022-11-29T15:46:50.273Z,14.10
2022-11-29T15:49:26.312Z,16.00
2022-11-29T15:52:01.963Z,16.10
2022-11-29T15:54:35.046Z,15.60
2022-11-29T15:57:11.180Z,16.80
2022-11-29T15:59:53.462Z,16.10
2022-11-29T16:02:32.267Z,13.60
2022-11-29T16:05:14.850Z,15.60
2022-11-29T16:07:44.905Z,18.80
2022-11-29T16:10:17.089Z,15.20
2022-11-29T16:12:56.135Z,16.30
2022-11-29T16:15:43.994Z,14.50
2022-11-29T16:18:14.119Z,16.40
2022-11-29T16:20:59.570Z,13.50
2022-11-29T16:23:40.013Z,14.40
2022-11-29T16:26:18.502Z,16.30
2022-11-29T16:28:49.486Z,16.20
2022-11-29T16:31:23.211Z,15.50
2022-11-29T16:33:52.266Z,18.20
2022-11-29T16:36:25.268Z,16.00
2022-11-29T16:38:57.029Z,14.80
2022-11-29T16:41:37.988Z,14.60
2022-11-29T16:44:27.058Z,14.80
2022-11-29T16:47:11.345Z,14.40
2022-11-29T16:49:39.042Z,13.10
2022-11-29T16:52:30.467Z,14.50
2022-11-29T16:54:58.374Z,13.90
2022-11-29T16:57:28.603Z,13.60
2022-11-29T16:59:56.278Z,14.40
2022-11-29T17:02:24.008Z,15.00
2022-11-29T17:04:51.689Z,29.10
2022-11-29T17:07:30.114Z,15.20
2022-11-29T17:09:58.750Z,15.10
2022-11-29T17:12:26.474Z,16.00
2022-11-29T17:14:54.053Z,16.20
2022-11-29T17:17:21.670Z,17.50
2022-11-29T17:19:49.260Z,16.30
2022-11-29T17:22:16.973Z,13.40
2022-11-29T17:24:47.996Z,16.40
2022-11-29T17:27:18.958Z,13.80
2022-11-29T17:29:46.517Z,13.50
2022-11-29T17:32:14.106Z,17.60
2022-11-29T17:34:41.773Z,15.60
2022-11-29T17:37:09.357Z,15.10
2022-11-29T17:39:36.923Z,16.30
2022-11-29T17:42:04.524Z,14.80
2022-11-29T17:44:35.305Z,13.20
2022-11-29T17:47:02.913Z,15.30
2022-11-29T17:49:30.553Z,14.00
2022-11-29T17:51:58.208Z,16.90
2022-11-29T17:54:25.827Z,16.40
2022-11-29T17:56:53.482Z,13.10
2022-11-29T17:59:21.166Z,16.20
2022-11-29T18:01:48.977Z,16.50
2022-11-29T18:04:18.181Z,16.10
2022-11-29T18:06:45.788Z,16.30
2022-11-29T18:09:13.424Z,17.80
2022-11-29T18:11:48.264Z,13.80
2022-11-29T18:14:20.157Z,18.10
2022-11-29T18:16:48.031Z,19.10
2022-11-29T18:19:18.607Z,17.00
2022-11-29T18:21:46.337Z,16.00
2022-11-29T18:24:13.970Z,17.20
2022-11-29T18:26:41.957Z,19.30
2022-11-29T18:29:09.587Z,17.80
2022-11-29T18:31:40.962Z,16.80
2022-11-29T18:34:09.924Z,17.80
2022-11-29T18:36:46.604Z,16.40
2022-11-29T18:39:19.906Z,17.80
2022-11-29T18:41:49.228Z,18.10
2022-11-29T18:44:19.445Z,20.00
2022-11-29T18:46:47.559Z,17.90
2022-11-29T18:49:17.377Z,19.00
2022-11-29T18:51:46.238Z,17.90
2022-11-29T18:54:18.364Z,18.70
2022-11-29T18:56:46.296Z,17.80
2022-11-29T18:59:16.096Z,12.50
2022-11-29T19:01:45.867Z,16.30
2022-11-29T19:04:18.828Z,17.60
2022-11-29T19:06:46.896Z,16.70
2022-11-29T19:09:17.843Z,17.90
2022-11-29T19:11:45.390Z,16.90
2022-11-29T19:14:13.194Z,17.50
2022-11-29T19:16:43.827Z,18.40
2022-11-29T19:19:11.876Z,16.10
2022-11-29T19:21:40.423Z,16.10
2022-11-29T19:24:11.975Z,17.30
2022-11-29T19:29:07.349Z,17.70
2022-11-29T19:31:35.053Z,16.40
2022-11-29T19:34:02.623Z,18.60
2022-11-29T19:36:31.679Z,17.00
2022-11-29T19:39:00.673Z,15.20
2022-11-29T19:41:31.919Z,15.20
2022-11-29T19:44:05.040Z,16.00
2022-11-29T19:46:38.132Z,15.00
2022-11-29T19:49:07.651Z,14.20
2022-11-29T19:51:36.136Z,15.40
2022-11-29T19:54:06.286Z,14.40
2022-11-29T19:56:34.579Z,14.60
2022-11-29T19:59:02.251Z,14.10
2022-11-29T20:01:39.306Z,13.10
2022-11-29T20:04:07.792Z,17.90
2022-11-29T20:06:35.839Z,16.40
2022-11-29T20:09:03.997Z,17.20
2022-11-29T20:11:31.665Z,19.10
2022-11-29T20:14:01.538Z,17.30
2022-11-29T20:16:30.503Z,18.80
2022-11-29T20:18:59.216Z,17.20
2022-11-29T20:21:29.686Z,18.40
2022-11-29T20:24:06.800Z,19.30
2022-11-29T20:26:37.030Z,17.40
2022-11-29T20:29:07.653Z,17.10
2022-11-29T20:31:36.943Z,17.60
2022-11-29T20:34:05.448Z,16.90
2022-11-29T20:37:07.716Z,16.10
2022-11-29T20:39:49.791Z,17.40
2022-11-29T20:42:29.485Z,17.70
2022-11-29T20:45:00.104Z,15.50
2022-11-29T20:47:33.752Z,16.50
2022-11-29T20:50:01.439Z,16.30
2022-11-29T20:52:47.467Z,15.20
2022-11-29T20:55:15.198Z,16.30
2022-11-29T20:57:42.867Z,17.00
2022-11-29T21:00:12.367Z,15.40
2022-11-29T21:02:40.089Z,18.00
2022-11-29T21:05:08.508Z,16.90
2022-11-29T21:07:36.424Z,17.40
2022-11-29T21:10:05.104Z,15.60
2022-11-29T21:12:33.128Z,15.80
2022-11-29T21:15:01.122Z,15.60
2022-11-29T21:17:33.437Z,17.60
2022-11-29T21:20:01.951Z,16.20
2022-11-29T21:22:48.689Z,16.50
2022-11-29T21:25:51.571Z,16.10
2022-11-29T21:28:20.178Z,16.60
2022-11-29T21:30:48.064Z,15.20
2022-11-29T21:33:15.939Z,16.10
2022-11-29T21:35:43.632Z,15.30
2022-11-29T21:38:17.710Z,17.10
2022-11-29T21:40:45.311Z,17.40
2022-11-29T21:43:12.881Z,16.40
2022-11-29T21:45:40.496Z,17.00
2022-11-29T21:48:08.057Z,17.30
2022-11-29T21:50:35.616Z,16.20
2022-11-29T21:53:03.168Z,16.40
2022-11-29T21:55:32.230Z,16.80
2022-11-29T21:58:00.220Z,15.20
2022-11-29T22:00:27.810Z,15.60
2022-11-29T22:02:56.337Z,18.20
2022-11-29T22:05:24.039Z,16.10
2022-11-29T22:07:55.747Z,14.90
2022-11-29T22:10:23.339Z,16.00
2022-11-29T22:12:52.526Z,16.30
2022-11-29T22:15:24.816Z,15.30
2022-11-29T22:17:53.209Z,14.80
2022-11-29T22:20:20.937Z,16.90
2022-11-29T22:22:48.680Z,15.20
2022-11-29T22:25:16.597Z,16.40
2022-11-29T22:27:44.206Z,15.90
2022-11-29T22:30:12.239Z,16.00
2022-11-29T22:32:39.894Z,14.80
2022-11-29T22:35:07.830Z,14.40
2022-11-29T22:37:35.432Z,14.80
2022-11-29T22:40:03.303Z,15.20
2022-11-29T22:42:30.934Z,14.80
2022-11-29T22:44:58.533Z,15.00
2022-11-29T22:47:26.130Z,15.30
2022-11-29T22:49:53.743Z,12.50
2022-11-29T22:52:21.414Z,14.30
2022-11-29T22:54:49.288Z,15.40
2022-11-29T22:57:17.179Z,15.80
2022-11-29T22:59:44.819Z,14.70
2022-11-29T23:02:12.445Z,15.80
2022-11-29T23:04:40.099Z,13.50
2022-11-29T23:07:07.673Z,14.00
2022-11-29T23:09:35.255Z,15.00
2022-11-29T23:12:02.806Z,15.40
2022-11-29T23:14:30.814Z,14.80
2022-11-29T23:16:58.430Z,14.60
2022-11-29T23:19:26.116Z,15.00
2022-11-29T23:21:53.701Z,15.80
2022-11-29T23:24:21.281Z,17.00
2022-11-29T23:26:48.848Z,13.20
2022-11-29T23:29:19.008Z,15.20
2022-11-29T23:31:47.107Z,14.60
2022-11-29T23:34:14.847Z,14.70
2022-11-29T23:36:43.948Z,16.30
2022-11-29T23:39:13.372Z,15.10
2022-11-29T23:41:40.971Z,14.40
2022-11-29T23:44:08.574Z,16.00
2022-11-29T23:46:36.265Z,14.40
2022-11-29T23:49:03.945Z,13.60
2022-11-29T23:51:31.590Z,13.90
2022-11-29T23:53:59.189Z,13.80
2022-11-29T23:56:27.293Z,14.40
2022-11-29T23:58:55.018Z,15.20
